sensor_id;sensor_type;location;lat;lon;timestamp;temperature;humidity
42261;DHT22;27926;48.062;7.474;2022-12-01T00:00:13;7.00;99.90
42261;DHT22;27926;48.062;7.474;2022-12-01T00:02:38;6.60;99.90
42261;DHT22;27926;48.062;7.474;2022-12-01T00:05:03;7.90;99.90
42261;DHT22;27926;48.062;7.474;2022-12-01T00:07:27;6.60;99.90
42261;DHT22;27926;48.062;7.474;2022-12-01T00:09:52;6.60;99.90
42261;DHT22;27926;48.062;7.474;2022-12-01T00:12:35;6.60;99.90
42261;DHT22;27926;48.062;7.474;2022-12-01T00:14:59;6.60;99.90
42261;DHT22;27926;48.062;7.474;2022-12-01T00:17:24;6.90;99.90
42261;DHT22;27926;48.062;7.474;2022-12-01T00:19:48;6.70;99.90
42261;DHT22;27926;48.062;7.474;2022-12-01T00:22:13;6.50;99.90
42261;DHT22;27926;48.062;7.474;2022-12-01T00:24:38;7.30;99.90
42261;DHT22;27926;48.062;7.474;2022-12-01T00:27:02;6.90;99.90
42261;DHT22;27926;48.062;7.474;2022-12-01T00:29:27;7.40;99.90
42261;DHT22;27926;48.062;7.474;2022-12-01T00:31:52;6.50;99.90
42261;DHT22;27926;48.062;7.474;2022-12-01T00:34:21;6.40;99.90
42261;DHT22;27926;48.062;7.474;2022-12-01T00:36:46;6.40;99.90
42261;DHT22;27926;48.062;7.474;2022-12-01T00:39:11;7.20;99.90
42261;DHT22;27926;48.062;7.474;2022-12-01T00:41:36;7.30;99.90
42261;DHT22;27926;48.062;7.474;2022-12-01T00:44:00;6.60;99.90
42261;DHT22;27926;48.062;7.474;2022-12-01T00:46:25;7.10;99.90
42261;DHT22;27926;48.062;7.474;2022-12-01T00:48:49;6.30;99.90
42261;DHT22;27926;48.062;7.474;2022-12-01T00:51:14;6.80;99.90
42261;DHT22;27926;48.062;7.474;2022-12-01T00:53:38;6.30;99.90
42261;DHT22;27926;48.062;7.474;2022-12-01T00:56:03;6.30;99.90
42261;DHT22;27926;48.062;7.474;2022-12-01T00:58:28;6.30;99.90
42261;DHT22;27926;48.062;7.474;2022-12-01T01:00:56;6.30;99.90
42261;DHT22;27926;48.062;7.474;2022-12-01T01:03:22;6.20;99.90
42261;DHT22;27926;48.062;7.474;2022-12-01T01:05:46;6.90;99.90
42261;DHT22;27926;48.062;7.474;2022-12-01T01:08:12;6.20;99.90
42261;DHT22;27926;48.062;7.474;2022-12-01T01:10:39;7.80;99.90
42261;DHT22;27926;48.062;7.474;2022-12-01T01:13:04;7.60;99.90
42261;DHT22;27926;48.062;7.474;2022-12-01T01:15:28;6.20;99.90
42261;DHT22;27926;48.062;7.474;2022-12-01T01:17:53;7.60;99.90
42261;DHT22;27926;48.062;7.474;2022-12-01T01:20:18;7.10;99.90
42261;DHT22;27926;48.062;7.474;2022-12-01T01:22:42;7.20;99.90
42261;DHT22;27926;48.062;7.474;2022-12-01T01:25:07;7.20;99.90
42261;DHT22;27926;48.062;7.474;2022-12-01T01:27:33;6.10;99.90
42261;DHT22;27926;48.062;7.474;2022-12-01T01:29:58;6.00;99.90
42261;DHT22;27926;48.062;7.474;2022-12-01T01:32:22;6.10;99.90
42261;DHT22;27926;48.062;7.474;2022-12-01T01:34:47;7.40;99.90
42261;DHT22;27926;48.062;7.474;2022-12-01T01:37:12;6.60;99.90
42261;DHT22;27926;48.062;7.474;2022-12-01T01:39:36;7.40;99.90
42261;DHT22;27926;48.062;7.474;2022-12-01T01:42:01;6.60;99.90
42261;DHT22;27926;48.062;7.474;2022-12-01T01:47:26;5.90;99.90
42261;DHT22;27926;48.062;7.474;2022-12-01T01:49:53;5.90;99.90
42261;DHT22;27926;48.062;7.474;2022-12-01T01:52:18;6.60;99.90
42261;DHT22;27926;48.062;7.474;2022-12-01T01:54:46;6.80;99.90
42261;DHT22;27926;48.062;7.474;2022-12-01T01:57:15;5.70;99.90
42261;DHT22;27926;48.062;7.474;2022-12-01T01:59:46;6.40;99.90
42261;DHT22;27926;48.062;7.474;2022-12-01T02:02:12;7.40;99.90
42261;DHT22;27926;48.062;7.474;2022-12-01T02:04:42;5.60;99.90
42261;DHT22;27926;48.062;7.474;2022-12-01T02:07:11;5.60;99.90
42261;DHT22;27926;48.062;7.474;2022-12-01T02:09:36;7.20;99.90
42261;DHT22;27926;48.062;7.474;2022-12-01T02:20:18;5.50;99.90
42261;DHT22;27926;48.062;7.474;2022-12-01T02:29:09;5.40;99.90
42261;DHT22;27926;48.062;7.474;2022-12-01T02:34:32;5.40;99.90
42261;DHT22;27926;48.062;7.474;2022-12-01T02:37:07;5.40;99.90
42261;DHT22;27926;48.062;7.474;2022-12-01T02:39:43;5.40;99.90
42261;DHT22;27926;48.062;7.474;2022-12-01T02:42:18;5.40;99.90
42261;DHT22;27926;48.062;7.474;2022-12-01T02:45:04;5.50;99.90
42261;DHT22;27926;48.062;7.474;2022-12-01T02:47:31;5.30;99.90
42261;DHT22;27926;48.062;7.474;2022-12-01T02:49:56;5.40;99.90
42261;DHT22;27926;48.062;7.474;2022-12-01T02:52:22;5.30;99.90
42261;DHT22;27926;48.062;7.474;2022-12-01T02:54:47;5.20;99.90
42261;DHT22;27926;48.062;7.474;2022-12-01T02:57:13;6.50;99.90
42261;DHT22;27926;48.062;7.474;2022-12-01T02:59:40;5.20;99.90
42261;DHT22;27926;48.062;7.474;2022-12-01T03:02:09;5.50;99.90
42261;DHT22;27926;48.062;7.474;2022-12-01T03:07:25;6.10;99.90
42261;DHT22;27926;48.062;7.474;2022-12-01T03:15:33;5.10;99.90
42261;DHT22;27926;48.062;7.474;2022-12-01T03:18:12;5.10;99.90
42261;DHT22;27926;48.062;7.474;2022-12-01T03:20:53;5.10;99.90
42261;DHT22;27926;48.062;7.474;2022-12-01T03:23:22;5.10;99.90
42261;DHT22;27926;48.062;7.474;2022-12-01T03:25:50;5.10;99.90
42261;DHT22;27926;48.062;7.474;2022-12-01T03:28:19;5.00;99.90
42261;DHT22;27926;48.062;7.474;2022-12-01T03:30:45;5.10;99.90
42261;DHT22;27926;48.062;7.474;2022-12-01T03:33:16;5.00;99.90
42261;DHT22;27926;48.062;7.474;2022-12-01T03:36:12;5.60;99.90
42261;DHT22;27926;48.062;7.474;2022-12-01T03:38:39;5.00;99.90
42261;DHT22;27926;48.062;7.474;2022-12-01T03:41:11;6.60;99.90
42261;DHT22;27926;48.062;7.474;2022-12-01T03:43:43;6.30;99.90
42261;DHT22;27926;48.062;7.474;2022-12-01T03:46:16;6.00;99.90
42261;DHT22;27926;48.062;7.474;2022-12-01T03:48:42;5.20;99.90
42261;DHT22;27926;48.062;7.474;2022-12-01T03:51:36;4.90;99.90
42261;DHT22;27926;48.062;7.474;2022-12-01T03:54:10;4.80;99.90
42261;DHT22;27926;48.062;7.474;2022-12-01T03:56:51;4.80;99.90
42261;DHT22;27926;48.062;7.474;2022-12-01T03:59:18;4.70;99.90
42261;DHT22;27926;48.062;7.474;2022-12-01T04:01:44;4.80;99.90
42261;DHT22;27926;48.062;7.474;2022-12-01T04:04:11;4.70;99.90
42261;DHT22;27926;48.062;7.474;2022-12-01T04:06:37;4.70;99.90
42261;DHT22;27926;48.062;7.474;2022-12-01T04:09:03;5.50;99.90
42261;DHT22;27926;48.062;7.474;2022-12-01T04:11:28;4.70;99.90
42261;DHT22;27926;48.062;7.474;2022-12-01T04:14:11;4.70;99.90
42261;DHT22;27926;48.062;7.474;2022-12-01T04:16:36;4.70;99.90
42261;DHT22;27926;48.062;7.474;2022-12-01T04:19:00;6.40;99.90
42261;DHT22;27926;48.062;7.474;2022-12-01T04:21:25;4.60;99.90
42261;DHT22;27926;48.062;7.474;2022-12-01T04:23:49;5.80;99.90
42261;DHT22;27926;48.062;7.474;2022-12-01T04:26:23;4.60;99.90
42261;DHT22;27926;48.062;7.474;2022-12-01T04:28:48;4.60;99.90
42261;DHT22;27926;48.062;7.474;2022-12-01T04:31:12;4.60;99.90
42261;DHT22;27926;48.062;7.474;2022-12-01T04:33:37;4.60;99.90
42261;DHT22;27926;48.062;7.474;2022-12-01T04:36:01;5.30;99.90
42261;DHT22;27926;48.062;7.474;2022-12-01T04:38:26;4.60;99.90
42261;DHT22;27926;48.062;7.474;2022-12-01T04:40:51;6.10;99.90
42261;DHT22;27926;48.062;7.474;2022-12-01T04:43:16;4.50;99.90
42261;DHT22;27926;48.062;7.474;2022-12-01T04:45:41;4.50;99.90
42261;DHT22;27926;48.062;7.474;2022-12-01T04:48:05;5.40;99.90
42261;DHT22;27926;48.062;7.474;2022-12-01T04:50:30;4.50;99.90
42261;DHT22;27926;48.062;7.474;2022-12-01T04:52:54;4.50;99.90
42261;DHT22;27926;48.062;7.474;2022-12-01T04:55:19;5.20;99.90
42261;DHT22;27926;48.062;7.474;2022-12-01T04:57:45;4.50;99.90
42261;DHT22;27926;48.062;7.474;2022-12-01T05:00:10;5.30;99.90
42261;DHT22;27926;48.062;7.474;2022-12-01T05:02:36;4.40;99.90
42261;DHT22;27926;48.062;7.474;2022-12-01T05:05:01;4.40;99.90
42261;DHT22;27926;48.062;7.474;2022-12-01T05:07:25;4.40;99.90
42261;DHT22;27926;48.062;7.474;2022-12-01T05:09:50;4.40;99.90
42261;DHT22;27926;48.062;7.474;2022-12-01T05:12:15;4.30;99.90
42261;DHT22;27926;48.062;7.474;2022-12-01T05:14:40;4.30;99.90
42261;DHT22;27926;48.062;7.474;2022-12-01T05:17:05;5.20;99.90
42261;DHT22;27926;48.062;7.474;2022-12-01T05:19:29;4.30;99.90
42261;DHT22;27926;48.062;7.474;2022-12-01T05:22:13;4.30;99.90
42261;DHT22;27926;48.062;7.474;2022-12-01T05:24:37;4.40;99.90
42261;DHT22;27926;48.062;7.474;2022-12-01T05:27:02;4.50;99.90
42261;DHT22;27926;48.062;7.474;2022-12-01T05:29:26;4.20;99.90
42261;DHT22;27926;48.062;7.474;2022-12-01T05:31:51;4.20;99.90
42261;DHT22;27926;48.062;7.474;2022-12-01T05:34:15;4.20;99.90
42261;DHT22;27926;48.062;7.474;2022-12-01T05:36:43;4.20;99.90
42261;DHT22;27926;48.062;7.474;2022-12-01T05:39:07;4.20;99.90
42261;DHT22;27926;48.062;7.474;2022-12-01T05:41:32;4.20;99.90
42261;DHT22;27926;48.062;7.474;2022-12-01T05:43:57;4.20;99.90
42261;DHT22;27926;48.062;7.474;2022-12-01T05:46:21;4.20;99.90
42261;DHT22;27926;48.062;7.474;2022-12-01T05:48:46;5.30;99.90
42261;DHT22;27926;48.062;7.474;2022-12-01T05:51:13;4.20;99.90
42261;DHT22;27926;48.062;7.474;2022-12-01T05:53:37;4.20;99.90
42261;DHT22;27926;48.062;7.474;2022-12-01T05:56:03;4.40;99.90
42261;DHT22;27926;48.062;7.474;2022-12-01T05:58:27;4.20;99.90
42261;DHT22;27926;48.062;7.474;2022-12-01T06:00:52;4.60;99.90
42261;DHT22;27926;48.062;7.474;2022-12-01T06:03:16;4.10;99.90
42261;DHT22;27926;48.062;7.474;2022-12-01T06:05:41;4.10;99.90
42261;DHT22;27926;48.062;7.474;2022-12-01T06:08:06;4.10;99.90
42261;DHT22;27926;48.062;7.474;2022-12-01T06:10:31;4.10;99.90
42261;DHT22;27926;48.062;7.474;2022-12-01T06:12:55;4.10;99.90
42261;DHT22;27926;48.062;7.474;2022-12-01T06:15:20;6.00;99.90
42261;DHT22;27926;48.062;7.474;2022-12-01T06:17:44;4.90;99.90
42261;DHT22;27926;48.062;7.474;2022-12-01T06:20:10;5.50;99.90
42261;DHT22;27926;48.062;7.474;2022-12-01T06:22:35;4.10;99.90
42261;DHT22;27926;48.062;7.474;2022-12-01T06:25:00;5.00;99.90
42261;DHT22;27926;48.062;7.474;2022-12-01T06:27:24;4.70;99.90
42261;DHT22;27926;48.062;7.474;2022-12-01T06:29:49;5.50;99.90
42261;DHT22;27926;48.062;7.474;2022-12-01T06:32:14;5.80;99.90
42261;DHT22;27926;48.062;7.474;2022-12-01T06:34:39;5.80;99.90
42261;DHT22;27926;48.062;7.474;2022-12-01T06:37:04;5.90;99.90
42261;DHT22;27926;48.062;7.474;2022-12-01T06:39:28;5.90;99.90
42261;DHT22;27926;48.062;7.474;2022-12-01T06:41:53;4.80;99.90
42261;DHT22;27926;48.062;7.474;2022-12-01T06:44:17;4.10;99.90
42261;DHT22;27926;48.062;7.474;2022-12-01T06:46:42;4.10;99.90
42261;DHT22;27926;48.062;7.474;2022-12-01T06:49:10;5.90;99.90
42261;DHT22;27926;48.062;7.474;2022-12-01T06:51:35;4.10;99.90
42261;DHT22;27926;48.062;7.474;2022-12-01T06:54:03;4.10;99.90
42261;DHT22;27926;48.062;7.474;2022-12-01T06:56:27;3.70;99.90
42261;DHT22;27926;48.062;7.474;2022-12-01T06:58:52;4.50;99.90
42261;DHT22;27926;48.062;7.474;2022-12-01T07:01:17;5.70;99.90
42261;DHT22;27926;48.062;7.474;2022-12-01T07:03:42;5.40;99.90
42261;DHT22;27926;48.062;7.474;2022-12-01T07:06:10;5.60;99.90
42261;DHT22;27926;48.062;7.474;2022-12-01T07:08:35;5.20;99.90
42261;DHT22;27926;48.062;7.474;2022-12-01T07:11:05;5.60;99.90
42261;DHT22;27926;48.062;7.474;2022-12-01T07:13:33;5.90;99.90
42261;DHT22;27926;48.062;7.474;2022-12-01T07:15:58;4.90;99.90
42261;DHT22;27926;48.062;7.474;2022-12-01T07:18:23;5.60;99.90
42261;DHT22;27926;48.062;7.474;2022-12-01T07:20:48;4.00;99.90
42261;DHT22;27926;48.062;7.474;2022-12-01T07:23:12;6.10;99.90
42261;DHT22;27926;48.062;7.474;2022-12-01T07:25:37;6.00;99.90
42261;DHT22;27926;48.062;7.474;2022-12-01T07:28:02;5.60;99.90
42261;DHT22;27926;48.062;7.474;2022-12-01T07:30:26;4.00;99.90
42261;DHT22;27926;48.062;7.474;2022-12-01T07:32:51;5.90;99.90
42261;DHT22;27926;48.062;7.474;2022-12-01T07:35:16;4.00;99.90
42261;DHT22;27926;48.062;7.474;2022-12-01T07:37:40;5.10;99.90
42261;DHT22;27926;48.062;7.474;2022-12-01T07:40:05;4.00;99.90
42261;DHT22;27926;48.062;7.474;2022-12-01T07:42:30;4.00;99.90
42261;DHT22;27926;48.062;7.474;2022-12-01T07:44:55;5.30;99.90
42261;DHT22;27926;48.062;7.474;2022-12-01T07:47:19;4.00;99.90
42261;DHT22;27926;48.062;7.474;2022-12-01T07:49:44;5.10;99.90
42261;DHT22;27926;48.062;7.474;2022-12-01T07:52:09;4.00;99.90
42261;DHT22;27926;48.062;7.474;2022-12-01T07:54:33;5.50;99.90
42261;DHT22;27926;48.062;7.474;2022-12-01T07:56:58;4.80;99.90
42261;DHT22;27926;48.062;7.474;2022-12-01T07:59:22;4.20;99.90
42261;DHT22;27926;48.062;7.474;2022-12-01T08:01:47;4.00;99.90
42261;DHT22;27926;48.062;7.474;2022-12-01T08:04:12;4.00;99.90
42261;DHT22;27926;48.062;7.474;2022-12-01T08:06:36;4.00;99.90
42261;DHT22;27926;48.062;7.474;2022-12-01T08:09:01;4.70;99.90
42261;DHT22;27926;48.062;7.474;2022-12-01T08:11:26;4.00;99.90
42261;DHT22;27926;48.062;7.474;2022-12-01T08:13:53;4.20;99.90
42261;DHT22;27926;48.062;7.474;2022-12-01T08:16:19;4.20;99.90
42261;DHT22;27926;48.062;7.474;2022-12-01T08:18:44;4.00;99.90
42261;DHT22;27926;48.062;7.474;2022-12-01T08:21:12;4.00;99.90
42261;DHT22;27926;48.062;7.474;2022-12-01T08:23:37;4.20;99.90
42261;DHT22;27926;48.062;7.474;2022-12-01T08:26:05;4.00;99.90
42261;DHT22;27926;48.062;7.474;2022-12-01T08:28:30;4.00;99.90
42261;DHT22;27926;48.062;7.474;2022-12-01T08:30:55;4.70;99.90
42261;DHT22;27926;48.062;7.474;2022-12-01T08:33:20;4.00;99.90
42261;DHT22;27926;48.062;7.474;2022-12-01T08:35:44;4.00;99.90
42261;DHT22;27926;48.062;7.474;2022-12-01T08:38:09;4.00;99.90
42261;DHT22;27926;48.062;7.474;2022-12-01T08:40:34;4.00;99.90
42261;DHT22;27926;48.062;7.474;2022-12-01T08:42:59;4.30;99.90
42261;DHT22;27926;48.062;7.474;2022-12-01T08:45:24;5.00;99.90
42261;DHT22;27926;48.062;7.474;2022-12-01T08:47:48;4.00;99.90
42261;DHT22;27926;48.062;7.474;2022-12-01T08:50:13;4.80;99.90
42261;DHT22;27926;48.062;7.474;2022-12-01T08:52:38;4.00;99.90
42261;DHT22;27926;48.062;7.474;2022-12-01T08:55:03;4.20;99.90
42261;DHT22;27926;48.062;7.474;2022-12-01T08:57:28;4.00;99.90
42261;DHT22;27926;48.062;7.474;2022-12-01T08:59:53;4.10;99.90
42261;DHT22;27926;48.062;7.474;2022-12-01T09:02:17;4.00;99.90
42261;DHT22;27926;48.062;7.474;2022-12-01T09:04:48;4.50;99.90
42261;DHT22;27926;48.062;7.474;2022-12-01T09:07:16;4.00;99.90
42261;DHT22;27926;48.062;7.474;2022-12-01T09:09:42;4.60;99.90
42261;DHT22;27926;48.062;7.474;2022-12-01T09:12:07;4.00;99.90
42261;DHT22;27926;48.062;7.474;2022-12-01T09:14:39;4.00;99.90
42261;DHT22;27926;48.062;7.474;2022-12-01T09:17:04;4.10;99.90
42261;DHT22;27926;48.062;7.474;2022-12-01T09:19:29;4.20;99.90
42261;DHT22;27926;48.062;7.474;2022-12-01T09:21:54;4.00;99.90
42261;DHT22;27926;48.062;7.474;2022-12-01T09:24:19;4.00;99.90
42261;DHT22;27926;48.062;7.474;2022-12-01T09:26:43;4.00;99.90
42261;DHT22;27926;48.062;7.474;2022-12-01T09:29:11;4.00;99.90
42261;DHT22;27926;48.062;7.474;2022-12-01T09:31:36;5.80;99.90
42261;DHT22;27926;48.062;7.474;2022-12-01T09:34:03;4.30;99.90
42261;DHT22;27926;48.062;7.474;2022-12-01T09:36:29;4.30;99.90
42261;DHT22;27926;48.062;7.474;2022-12-01T09:38:54;4.10;99.90
42261;DHT22;27926;48.062;7.474;2022-12-01T09:41:46;4.10;99.90
42261;DHT22;27926;48.062;7.474;2022-12-01T09:46:59;4.10;99.90
42261;DHT22;27926;48.062;7.474;2022-12-01T09:52:13;4.20;99.90
42261;DHT22;27926;48.062;7.474;2022-12-01T09:54:38;4.20;99.90
42261;DHT22;27926;48.062;7.474;2022-12-01T09:57:02;4.20;99.90
42261;DHT22;27926;48.062;7.474;2022-12-01T10:02:25;4.30;99.90
42261;DHT22;27926;48.062;7.474;2022-12-01T10:04:52;4.30;99.90
42261;DHT22;27926;48.062;7.474;2022-12-01T10:07:20;4.30;99.90
42261;DHT22;27926;48.062;7.474;2022-12-01T10:10:00;4.30;99.90
42261;DHT22;27926;48.062;7.474;2022-12-01T10:12:30;4.30;99.90
42261;DHT22;27926;48.062;7.474;2022-12-01T10:20:35;4.40;99.90
42261;DHT22;27926;48.062;7.474;2022-12-01T10:25:58;4.50;99.90
42261;DHT22;27926;48.062;7.474;2022-12-01T10:34:06;4.50;99.90
42261;DHT22;27926;48.062;7.474;2022-12-01T10:36:32;4.50;99.90
42261;DHT22;27926;48.062;7.474;2022-12-01T10:38:58;4.50;99.90
42261;DHT22;27926;48.062;7.474;2022-12-01T10:41:25;4.50;99.90
42261;DHT22;27926;48.062;7.474;2022-12-01T10:43:55;4.50;99.90
42261;DHT22;27926;48.062;7.474;2022-12-01T10:48:56;4.60;99.90
42261;DHT22;27926;48.062;7.474;2022-12-01T10:51:22;5.70;99.90
42261;DHT22;27926;48.062;7.474;2022-12-01T10:53:48;4.90;99.90
42261;DHT22;27926;48.062;7.474;2022-12-01T10:56:20;4.80;99.90
42261;DHT22;27926;48.062;7.474;2022-12-01T10:58:53;6.50;99.90
42261;DHT22;27926;48.062;7.474;2022-12-01T11:01:22;4.70;99.90
42261;DHT22;27926;48.062;7.474;2022-12-01T11:03:59;4.70;99.90
42261;DHT22;27926;48.062;7.474;2022-12-01T11:06:27;4.70;99.90
42261;DHT22;27926;48.062;7.474;2022-12-01T11:08:58;5.30;99.90
42261;DHT22;27926;48.062;7.474;2022-12-01T11:11:38;5.10;99.90
42261;DHT22;27926;48.062;7.474;2022-12-01T11:14:17;4.70;99.90
42261;DHT22;27926;48.062;7.474;2022-12-01T11:16:45;4.70;99.90
42261;DHT22;27926;48.062;7.474;2022-12-01T11:19:27;4.70;99.90
42261;DHT22;27926;48.062;7.474;2022-12-01T11:21:55;4.60;99.90
42261;DHT22;27926;48.062;7.474;2022-12-01T11:27:01;4.70;99.90
42261;DHT22;27926;48.062;7.474;2022-12-01T11:29:29;4.90;99.90
42261;DHT22;27926;48.062;7.474;2022-12-01T11:31:56;5.10;99.90
42261;DHT22;27926;48.062;7.474;2022-12-01T11:34:24;5.30;99.90
42261;DHT22;27926;48.062;7.474;2022-12-01T11:37:01;6.50;99.90
42261;DHT22;27926;48.062;7.474;2022-12-01T11:39:36;4.60;99.90
42261;DHT22;27926;48.062;7.474;2022-12-01T11:44:39;4.80;99.90
42261;DHT22;27926;48.062;7.474;2022-12-01T11:47:15;4.00;99.90
42261;DHT22;27926;48.062;7.474;2022-12-01T11:49:46;4.90;99.90
42261;DHT22;27926;48.062;7.474;2022-12-01T11:53:03;4.70;99.90
42261;DHT22;27926;48.062;7.474;2022-12-01T11:55:25;4.60;99.90
42261;DHT22;27926;48.062;7.474;2022-12-01T11:58:03;3.30;99.90
42261;DHT22;27926;48.062;7.474;2022-12-01T12:00:44;4.50;99.90
42261;DHT22;27926;48.062;7.474;2022-12-01T12:03:25;4.50;99.90
42261;DHT22;27926;48.062;7.474;2022-12-01T12:06:17;4.80;99.90
42261;DHT22;27926;48.062;7.474;2022-12-01T12:09:02;4.70;99.90
42261;DHT22;27926;48.062;7.474;2022-12-01T12:11:52;3.60;99.90
42261;DHT22;27926;48.062;7.474;2022-12-01T12:34:31;4.70;99.90
42261;DHT22;27926;48.062;7.474;2022-12-01T12:37:29;4.60;99.90
42261;DHT22;27926;48.062;7.474;2022-12-01T12:45:41;4.60;99.90
42261;DHT22;27926;48.062;7.474;2022-12-01T12:50:49;4.70;99.90
42261;DHT22;27926;48.062;7.474;2022-12-01T12:53:22;4.70;99.90
42261;DHT22;27926;48.062;7.474;2022-12-01T12:55:51;6.20;99.90
42261;DHT22;27926;48.062;7.474;2022-12-01T12:58:29;4.70;99.90
42261;DHT22;27926;48.062;7.474;2022-12-01T13:01:27;4.70;99.90
42261;DHT22;27926;48.062;7.474;2022-12-01T13:04:06;5.00;99.90
42261;DHT22;27926;48.062;7.474;2022-12-01T13:06:39;4.70;99.90
42261;DHT22;27926;48.062;7.474;2022-12-01T13:09:42;4.70;99.90
42261;DHT22;27926;48.062;7.474;2022-12-01T13:12:06;4.70;99.90
42261;DHT22;27926;48.062;7.474;2022-12-01T13:14:40;4.70;99.90
42261;DHT22;27926;48.062;7.474;2022-12-01T13:17:15;5.80;99.90
42261;DHT22;27926;48.062;7.474;2022-12-01T13:19:43;4.70;99.90
42261;DHT22;27926;48.062;7.474;2022-12-01T13:22:11;4.80;99.90
42261;DHT22;27926;48.062;7.474;2022-12-01T13:24:36;4.70;99.90
42261;DHT22;27926;48.062;7.474;2022-12-01T13:29:42;4.70;99.90
42261;DHT22;27926;48.062;7.474;2022-12-01T13:32:24;4.70;99.90
42261;DHT22;27926;48.062;7.474;2022-12-01T13:34:50;4.70;99.90
42261;DHT22;27926;48.062;7.474;2022-12-01T13:37:42;4.70;99.90
42261;DHT22;27926;48.062;7.474;2022-12-01T13:40:15;4.70;99.90
42261;DHT22;27926;48.062;7.474;2022-12-01T13:42:58;5.00;99.90
42261;DHT22;27926;48.062;7.474;2022-12-01T13:45:24;4.70;99.90
42261;DHT22;27926;48.062;7.474;2022-12-01T13:47:54;5.50;99.90
42261;DHT22;27926;48.062;7.474;2022-12-01T13:59:01;5.00;99.90
42261;DHT22;27926;48.062;7.474;2022-12-01T14:03:58;4.60;99.90
42261;DHT22;27926;48.062;7.474;2022-12-01T14:06:38;4.70;99.90
42261;DHT22;27926;48.062;7.474;2022-12-01T14:09:30;4.60;99.90
42261;DHT22;27926;48.062;7.474;2022-12-01T14:12:05;4.50;99.90
42261;DHT22;27926;48.062;7.474;2022-12-01T14:14:40;4.60;99.90
42261;DHT22;27926;48.062;7.474;2022-12-01T14:17:19;4.50;99.90
42261;DHT22;27926;48.062;7.474;2022-12-01T14:19:49;4.50;99.90
42261;DHT22;27926;48.062;7.474;2022-12-01T14:22:45;4.50;99.90
42261;DHT22;27926;48.062;7.474;2022-12-01T14:27:54;4.50;99.90
42261;DHT22;27926;48.062;7.474;2022-12-01T14:39:10;4.50;99.90
42261;DHT22;27926;48.062;7.474;2022-12-01T14:41:48;4.50;99.90
42261;DHT22;27926;48.062;7.474;2022-12-01T14:47:11;4.40;99.90
42261;DHT22;27926;48.062;7.474;2022-12-01T14:49:50;4.40;99.90
42261;DHT22;27926;48.062;7.474;2022-12-01T14:54:57;4.30;99.90
42261;DHT22;27926;48.062;7.474;2022-12-01T14:57:35;4.30;99.90
42261;DHT22;27926;48.062;7.474;2022-12-01T15:00:10;4.30;99.90
42261;DHT22;27926;48.062;7.474;2022-12-01T15:02:55;4.30;99.90
42261;DHT22;27926;48.062;7.474;2022-12-01T15:05:31;4.30;99.90
42261;DHT22;27926;48.062;7.474;2022-12-01T15:08:17;4.30;99.90
42261;DHT22;27926;48.062;7.474;2022-12-01T15:10:52;4.30;99.90
42261;DHT22;27926;48.062;7.474;2022-12-01T15:15:56;4.30;99.90
42261;DHT22;27926;48.062;7.474;2022-12-01T15:18:32;4.30;99.90
42261;DHT22;27926;48.062;7.474;2022-12-01T15:21:22;4.30;99.90
42261;DHT22;27926;48.062;7.474;2022-12-01T15:26:21;4.30;99.90
42261;DHT22;27926;48.062;7.474;2022-12-01T15:28:47;4.30;99.90
42261;DHT22;27926;48.062;7.474;2022-12-01T15:31:12;4.30;99.90
42261;DHT22;27926;48.062;7.474;2022-12-01T15:33:45;4.20;99.90
42261;DHT22;27926;48.062;7.474;2022-12-01T15:36:10;4.20;99.90
42261;DHT22;27926;48.062;7.474;2022-12-01T15:38:36;4.30;99.90
42261;DHT22;27926;48.062;7.474;2022-12-01T15:41:03;4.20;99.90
42261;DHT22;27926;48.062;7.474;2022-12-01T15:43:37;4.20;99.90
42261;DHT22;27926;48.062;7.474;2022-12-01T15:46:15;4.20;99.90
42261;DHT22;27926;48.062;7.474;2022-12-01T15:48:41;4.20;99.90
42261;DHT22;27926;48.062;7.474;2022-12-01T15:51:16;4.00;99.90
42261;DHT22;27926;48.062;7.474;2022-12-01T15:53:51;4.20;99.90
42261;DHT22;27926;48.062;7.474;2022-12-01T15:59:02;4.20;99.90
42261;DHT22;27926;48.062;7.474;2022-12-01T16:01:30;4.20;99.90
42261;DHT22;27926;48.062;7.474;2022-12-01T16:04:16;4.20;99.90
42261;DHT22;27926;48.062;7.474;2022-12-01T16:06:42;4.20;99.90
42261;DHT22;27926;48.062;7.474;2022-12-01T16:09:23;4.20;99.90
42261;DHT22;27926;48.062;7.474;2022-12-01T16:12:22;4.20;99.90
42261;DHT22;27926;48.062;7.474;2022-12-01T16:17:17;4.20;99.90
42261;DHT22;27926;48.062;7.474;2022-12-01T16:19:42;5.70;99.90
42261;DHT22;27926;48.062;7.474;2022-12-01T16:22:15;4.20;99.90
42261;DHT22;27926;48.062;7.474;2022-12-01T16:27:20;4.10;99.90
42261;DHT22;27926;48.062;7.474;2022-12-01T16:30:00;4.10;99.90
42261;DHT22;27926;48.062;7.474;2022-12-01T16:34:54;4.10;99.90
42261;DHT22;27926;48.062;7.474;2022-12-01T16:37:19;4.10;99.90
42261;DHT22;27926;48.062;7.474;2022-12-01T16:39:45;4.20;99.90
42261;DHT22;27926;48.062;7.474;2022-12-01T16:42:15;4.10;99.90
42261;DHT22;27926;48.062;7.474;2022-12-01T16:44:47;4.10;99.90
42261;DHT22;27926;48.062;7.474;2022-12-01T16:47:20;4.10;99.90
42261;DHT22;27926;48.062;7.474;2022-12-01T16:49:46;4.10;99.90
42261;DHT22;27926;48.062;7.474;2022-12-01T16:52:12;4.10;99.90
42261;DHT22;27926;48.062;7.474;2022-12-01T16:54:37;4.10;99.90
42261;DHT22;27926;48.062;7.474;2022-12-01T16:57:01;4.10;99.90
42261;DHT22;27926;48.062;7.474;2022-12-01T16:59:26;4.10;99.90
42261;DHT22;27926;48.062;7.474;2022-12-01T17:01:51;4.10;99.90
42261;DHT22;27926;48.062;7.474;2022-12-01T17:04:16;4.10;99.90
42261;DHT22;27926;48.062;7.474;2022-12-01T17:06:41;4.10;99.90
42261;DHT22;27926;48.062;7.474;2022-12-01T17:09:06;4.10;99.90
42261;DHT22;27926;48.062;7.474;2022-12-01T17:11:31;4.10;99.90
42261;DHT22;27926;48.062;7.474;2022-12-01T17:13:56;4.10;99.90
42261;DHT22;27926;48.062;7.474;2022-12-01T17:16:20;4.30;99.90
42261;DHT22;27926;48.062;7.474;2022-12-01T17:18:45;4.00;99.90
42261;DHT22;27926;48.062;7.474;2022-12-01T17:21:10;4.00;99.90
42261;DHT22;27926;48.062;7.474;2022-12-01T17:23:36;4.00;99.90
42261;DHT22;27926;48.062;7.474;2022-12-01T17:26:06;4.00;99.90
42261;DHT22;27926;48.062;7.474;2022-12-01T17:28:32;4.00;99.90
42261;DHT22;27926;48.062;7.474;2022-12-01T17:30:59;4.00;99.90
42261;DHT22;27926;48.062;7.474;2022-12-01T17:33:24;4.00;99.90
42261;DHT22;27926;48.062;7.474;2022-12-01T17:35:48;4.00;99.90
42261;DHT22;27926;48.062;7.474;2022-12-01T17:38:13;4.00;99.90
42261;DHT22;27926;48.062;7.474;2022-12-01T17:40:38;4.00;99.90
42261;DHT22;27926;48.062;7.474;2022-12-01T17:43:03;3.90;99.90
42261;DHT22;27926;48.062;7.474;2022-12-01T17:45:31;4.80;99.90
42261;DHT22;27926;48.062;7.474;2022-12-01T17:47:55;4.00;99.90
42261;DHT22;27926;48.062;7.474;2022-12-01T17:50:20;4.00;99.90
42261;DHT22;27926;48.062;7.474;2022-12-01T17:52:45;4.00;99.90
42261;DHT22;27926;48.062;7.474;2022-12-01T17:55:10;3.90;99.90
42261;DHT22;27926;48.062;7.474;2022-12-01T17:57:34;3.90;99.90
42261;DHT22;27926;48.062;7.474;2022-12-01T17:59:59;3.90;99.90
42261;DHT22;27926;48.062;7.474;2022-12-01T18:02:27;3.90;99.90
42261;DHT22;27926;48.062;7.474;2022-12-01T18:04:52;3.90;99.90
42261;DHT22;27926;48.062;7.474;2022-12-01T18:07:17;3.90;99.90